Skip Navigation LinksHome page > Weather > Current weather Skip Navigation Links

Current Weather

Chicago O'Hare Intl, Chicago

For information only: do not use for flight planning or navigation.
Latest weather
Observation time Thursday, October 2, 2014 2:51 AM CDT
Local time Thursday, October 2, 2014 3:23 AM CDT
Flight conditions Visual Meteorological Conditions
Winds
Wind direction South-Southeast (150°)
Wind speed 7 mph
Visibility 10 mi.
Sky condition
Ceiling 12,000 ft. broken clouds
Cloud layer scattered clouds 7,500 ft.
Cloud layer broken clouds 12,000 ft.
Cloud layer overcast 25,000 ft.
Temperature 63°F
Dewpoint 56°F
Altimeter 29.87 in.Hg
Precipitation
Rain began 2:04 AM
Rain ended 2:13 AM
Precipitation last hour trace
Derived measurements
Relative humidity 78%
Density altitude 1198 ft.
Sea-level pressure 29.86 in.Hg
Remarks
Automated weather observing station with precipitation discriminator.
METAR KORD 020751Z 15006KT 10SM SCT075 BKN120 OVC250 17/13 A2987 RMK AO2 RAB04E13 SLP111 P0000 T01720133

Settings

Location code

InnerDrive.Weather 4.0.5372.0 Release CLR 4.0.30319.34014
Copyright ©2014 Inner Drive Technology. All rights reserved. Portions Copyright ©1986-2014 David Braverman.

Find weather

Site navigation


Skip Navigation Links

Place info

Page info

PayPal - The safer, easier way to pay online!

Return home.

Copyright ©2014 Inner Drive Technology. Purveyors of fine, hand-crafted computer software. Page printed 2014-10-02T08:23:05 UTC.